sensor_id;sensor_type;location;lat;lon;timestamp;P1;durP1;ratioP1;P2;durP2;ratioP2
18340;SDS011;9296;48.084;16.352;2023-08-06T00:01:33;0.30;;;0.30;;
18340;SDS011;9296;48.084;16.352;2023-08-06T00:04:01;0.17;;;0.17;;
18340;SDS011;9296;48.084;16.352;2023-08-06T00:06:28;0.65;;;0.20;;
18340;SDS011;9296;48.084;16.352;2023-08-06T00:08:55;0.30;;;0.30;;
18340;SDS011;9296;48.084;16.352;2023-08-06T00:14:26;0.22;;;0.20;;
18340;SDS011;9296;48.084;16.352;2023-08-06T00:16:55;0.20;;;0.20;;
18340;SDS011;9296;48.084;16.352;2023-08-06T00:19:22;1.15;;;0.25;;
18340;SDS011;9296;48.084;16.352;2023-08-06T00:21:49;0.82;;;0.75;;
18340;SDS011;9296;48.084;16.352;2023-08-06T00:24:16;0.20;;;0.20;;
18340;SDS011;9296;48.084;16.352;2023-08-06T00:29:31;0.40;;;0.30;;
18340;SDS011;9296;48.084;16.352;2023-08-06T00:31:59;0.30;;;0.30;;
18340;SDS011;9296;48.084;16.352;2023-08-06T00:34:26;1.20;;;0.30;;
18340;SDS011;9296;48.084;16.352;2023-08-06T00:36:53;0.47;;;0.47;;
18340;SDS011;9296;48.084;16.352;2023-08-06T00:39:21;0.43;;;0.43;;
18340;SDS011;9296;48.084;16.352;2023-08-06T00:41:48;0.30;;;0.30;;
18340;SDS011;9296;48.084;16.352;2023-08-06T00:44:15;1.10;;;0.40;;
18340;SDS011;9296;48.084;16.352;2023-08-06T00:46:42;1.30;;;0.30;;
18340;SDS011;9296;48.084;16.352;2023-08-06T00:49:11;0.30;;;0.30;;
18340;SDS011;9296;48.084;16.352;2023-08-06T00:51:38;0.20;;;0.20;;
18340;SDS011;9296;48.084;16.352;2023-08-06T00:54:06;0.75;;;0.25;;
18340;SDS011;9296;48.084;16.352;2023-08-06T00:56:33;0.32;;;0.30;;
18340;SDS011;9296;48.084;16.352;2023-08-06T00:59:01;0.77;;;0.40;;
18340;SDS011;9296;48.084;16.352;2023-08-06T01:01:29;0.30;;;0.30;;
18340;SDS011;9296;48.084;16.352;2023-08-06T01:03:56;0.30;;;0.30;;
18340;SDS011;9296;48.084;16.352;2023-08-06T01:06:28;0.22;;;0.20;;
18340;SDS011;9296;48.084;16.352;2023-08-06T01:09:03;0.30;;;0.28;;
18340;SDS011;9296;48.084;16.352;2023-08-06T01:14:37;0.30;;;0.30;;
18340;SDS011;9296;48.084;16.352;2023-08-06T01:17:08;0.30;;;0.30;;
18340;SDS011;9296;48.084;16.352;2023-08-06T01:19:36;0.30;;;0.20;;
18340;SDS011;9296;48.084;16.352;2023-08-06T01:22:05;0.20;;;0.20;;
18340;SDS011;9296;48.084;16.352;2023-08-06T01:24:32;0.30;;;0.30;;
18340;SDS011;9296;48.084;16.352;2023-08-06T01:27:01;0.50;;;0.25;;
18340;SDS011;9296;48.084;16.352;2023-08-06T01:29:31;0.45;;;0.20;;
18340;SDS011;9296;48.084;16.352;2023-08-06T01:32:01;0.22;;;0.20;;
18340;SDS011;9296;48.084;16.352;2023-08-06T01:34:28;0.28;;;0.28;;
18340;SDS011;9296;48.084;16.352;2023-08-06T01:36:57;0.30;;;0.30;;
18340;SDS011;9296;48.084;16.352;2023-08-06T01:39:27;0.30;;;0.30;;
18340;SDS011;9296;48.084;16.352;2023-08-06T01:44:58;0.70;;;0.40;;
18340;SDS011;9296;48.084;16.352;2023-08-06T01:47:25;0.90;;;0.30;;
18340;SDS011;9296;48.084;16.352;2023-08-06T01:49:53;0.32;;;0.32;;
18340;SDS011;9296;48.084;16.352;2023-08-06T01:52:20;0.40;;;0.40;;
18340;SDS011;9296;48.084;16.352;2023-08-06T01:54:49;0.30;;;0.30;;
18340;SDS011;9296;48.084;16.352;2023-08-06T01:57:16;0.20;;;0.20;;
18340;SDS011;9296;48.084;16.352;2023-08-06T01:59:43;0.65;;;0.32;;
18340;SDS011;9296;48.084;16.352;2023-08-06T02:02:10;0.40;;;0.40;;
18340;SDS011;9296;48.084;16.352;2023-08-06T02:04:38;0.30;;;0.30;;
18340;SDS011;9296;48.084;16.352;2023-08-06T02:07:05;0.50;;;0.40;;
18340;SDS011;9296;48.084;16.352;2023-08-06T02:09:32;0.57;;;0.40;;
18340;SDS011;9296;48.084;16.352;2023-08-06T02:15:06;0.38;;;0.30;;
18340;SDS011;9296;48.084;16.352;2023-08-06T02:17:33;1.23;;;0.73;;
18340;SDS011;9296;48.084;16.352;2023-08-06T02:20:00;1.52;;;0.98;;
18340;SDS011;9296;48.084;16.352;2023-08-06T02:22:27;0.63;;;0.57;;
18340;SDS011;9296;48.084;16.352;2023-08-06T02:24:55;0.60;;;0.60;;
18340;SDS011;9296;48.084;16.352;2023-08-06T02:30:27;0.60;;;0.60;;
18340;SDS011;9296;48.084;16.352;2023-08-06T02:32:54;0.73;;;0.57;;
18340;SDS011;9296;48.084;16.352;2023-08-06T02:35:22;0.60;;;0.60;;
18340;SDS011;9296;48.084;16.352;2023-08-06T02:37:49;0.50;;;0.50;;
18340;SDS011;9296;48.084;16.352;2023-08-06T02:40:16;0.60;;;0.60;;
18340;SDS011;9296;48.084;16.352;2023-08-06T02:45:48;2.33;;;0.70;;
18340;SDS011;9296;48.084;16.352;2023-08-06T02:48:15;1.08;;;0.70;;
18340;SDS011;9296;48.084;16.352;2023-08-06T02:50:43;1.17;;;0.80;;
18340;SDS011;9296;48.084;16.352;2023-08-06T02:53:10;1.55;;;0.80;;
18340;SDS011;9296;48.084;16.352;2023-08-06T02:55:37;1.25;;;0.80;;
18340;SDS011;9296;48.084;16.352;2023-08-06T03:01:10;1.00;;;0.90;;
18340;SDS011;9296;48.084;16.352;2023-08-06T03:03:37;1.38;;;0.80;;
18340;SDS011;9296;48.084;16.352;2023-08-06T03:06:04;0.85;;;0.82;;
18340;SDS011;9296;48.084;16.352;2023-08-06T03:08:31;0.75;;;0.75;;
18340;SDS011;9296;48.084;16.352;2023-08-06T03:10:58;1.00;;;0.90;;
18340;SDS011;9296;48.084;16.352;2023-08-06T03:13:25;1.05;;;0.95;;
18340;SDS011;9296;48.084;16.352;2023-08-06T03:15:53;0.80;;;0.80;;
18340;SDS011;9296;48.084;16.352;2023-08-06T03:18:22;1.27;;;0.93;;
18340;SDS011;9296;48.084;16.352;2023-08-06T03:20:50;1.20;;;1.08;;
18340;SDS011;9296;48.084;16.352;2023-08-06T03:23:18;1.15;;;0.80;;
18340;SDS011;9296;48.084;16.352;2023-08-06T03:25:45;0.95;;;0.90;;
18340;SDS011;9296;48.084;16.352;2023-08-06T03:28:31;1.25;;;1.15;;
18340;SDS011;9296;48.084;16.352;2023-08-06T03:30:59;1.25;;;1.10;;
18340;SDS011;9296;48.084;16.352;2023-08-06T03:33:28;1.25;;;1.15;;
18340;SDS011;9296;48.084;16.352;2023-08-06T03:35:55;1.42;;;1.20;;
18340;SDS011;9296;48.084;16.352;2023-08-06T03:38:22;1.60;;;1.20;;
18340;SDS011;9296;48.084;16.352;2023-08-06T03:40:50;1.55;;;1.27;;
18340;SDS011;9296;48.084;16.352;2023-08-06T03:46:21;1.73;;;1.33;;
18340;SDS011;9296;48.084;16.352;2023-08-06T03:48:50;1.45;;;1.35;;
18340;SDS011;9296;48.084;16.352;2023-08-06T03:51:17;1.77;;;1.33;;
18340;SDS011;9296;48.084;16.352;2023-08-06T03:53:44;1.98;;;1.10;;
18340;SDS011;9296;48.084;16.352;2023-08-06T03:56:11;1.67;;;1.58;;
18340;SDS011;9296;48.084;16.352;2023-08-06T03:58:38;1.80;;;1.40;;
18340;SDS011;9296;48.084;16.352;2023-08-06T04:01:05;1.48;;;1.30;;
18340;SDS011;9296;48.084;16.352;2023-08-06T04:03:33;2.65;;;1.50;;
18340;SDS011;9296;48.084;16.352;2023-08-06T04:06:02;1.70;;;1.60;;
18340;SDS011;9296;48.084;16.352;2023-08-06T04:08:30;1.48;;;1.38;;
18340;SDS011;9296;48.084;16.352;2023-08-06T04:10:57;1.92;;;1.50;;
18340;SDS011;9296;48.084;16.352;2023-08-06T04:13:24;1.40;;;1.30;;
18340;SDS011;9296;48.084;16.352;2023-08-06T04:15:52;1.60;;;1.50;;
18340;SDS011;9296;48.084;16.352;2023-08-06T04:18:19;1.80;;;1.70;;
18340;SDS011;9296;48.084;16.352;2023-08-06T04:20:46;3.17;;;1.40;;
18340;SDS011;9296;48.084;16.352;2023-08-06T04:23:16;4.10;;;1.40;;
18340;SDS011;9296;48.084;16.352;2023-08-06T04:25:43;1.63;;;1.52;;
18340;SDS011;9296;48.084;16.352;2023-08-06T04:30:56;1.98;;;1.58;;
18340;SDS011;9296;48.084;16.352;2023-08-06T04:33:23;3.25;;;1.63;;
18340;SDS011;9296;48.084;16.352;2023-08-06T04:35:53;1.48;;;1.30;;
18340;SDS011;9296;48.084;16.352;2023-08-06T04:38:23;1.90;;;1.55;;
18340;SDS011;9296;48.084;16.352;2023-08-06T04:40:51;2.10;;;1.60;;
18340;SDS011;9296;48.084;16.352;2023-08-06T04:46:22;2.85;;;1.92;;
18340;SDS011;9296;48.084;16.352;2023-08-06T04:48:49;1.58;;;1.40;;
18340;SDS011;9296;48.084;16.352;2023-08-06T04:51:16;1.60;;;1.50;;
18340;SDS011;9296;48.084;16.352;2023-08-06T04:53:45;2.40;;;1.83;;
18340;SDS011;9296;48.084;16.352;2023-08-06T04:56:12;1.60;;;1.50;;
18340;SDS011;9296;48.084;16.352;2023-08-06T05:01:42;1.58;;;1.48;;
18340;SDS011;9296;48.084;16.352;2023-08-06T05:04:09;1.75;;;1.45;;
18340;SDS011;9296;48.084;16.352;2023-08-06T05:06:37;1.38;;;1.27;;
18340;SDS011;9296;48.084;16.352;2023-08-06T05:09:06;1.40;;;1.30;;
18340;SDS011;9296;48.084;16.352;2023-08-06T05:11:40;2.72;;;1.63;;
18340;SDS011;9296;48.084;16.352;2023-08-06T05:14:07;1.90;;;1.58;;
18340;SDS011;9296;48.084;16.352;2023-08-06T05:16:34;5.05;;;1.60;;
18340;SDS011;9296;48.084;16.352;2023-08-06T05:19:01;1.63;;;1.52;;
18340;SDS011;9296;48.084;16.352;2023-08-06T05:21:28;3.25;;;1.50;;
18340;SDS011;9296;48.084;16.352;2023-08-06T05:23:55;4.63;;;1.33;;
18340;SDS011;9296;48.084;16.352;2023-08-06T05:26:24;1.60;;;1.50;;
18340;SDS011;9296;48.084;16.352;2023-08-06T05:28:51;4.25;;;1.50;;
18340;SDS011;9296;48.084;16.352;2023-08-06T05:31:18;1.40;;;1.30;;
18340;SDS011;9296;48.084;16.352;2023-08-06T05:33:45;1.40;;;1.30;;
18340;SDS011;9296;48.084;16.352;2023-08-06T05:36:13;1.80;;;1.70;;
18340;SDS011;9296;48.084;16.352;2023-08-06T05:38:40;1.33;;;1.23;;
18340;SDS011;9296;48.084;16.352;2023-08-06T05:41:07;1.50;;;1.40;;
18340;SDS011;9296;48.084;16.352;2023-08-06T05:46:39;2.08;;;1.25;;
18340;SDS011;9296;48.084;16.352;2023-08-06T05:49:06;2.22;;;1.48;;
18340;SDS011;9296;48.084;16.352;2023-08-06T05:51:33;1.52;;;1.25;;
18340;SDS011;9296;48.084;16.352;2023-08-06T05:54:01;1.40;;;1.30;;
18340;SDS011;9296;48.084;16.352;2023-08-06T05:56:28;1.33;;;1.23;;
18340;SDS011;9296;48.084;16.352;2023-08-06T06:02:00;1.70;;;1.33;;
18340;SDS011;9296;48.084;16.352;2023-08-06T06:04:27;2.42;;;1.20;;
18340;SDS011;9296;48.084;16.352;2023-08-06T06:06:55;1.50;;;1.30;;
18340;SDS011;9296;48.084;16.352;2023-08-06T06:09:22;1.08;;;0.98;;
18340;SDS011;9296;48.084;16.352;2023-08-06T06:11:49;1.25;;;1.15;;
18340;SDS011;9296;48.084;16.352;2023-08-06T06:14:16;1.20;;;1.10;;
18340;SDS011;9296;48.084;16.352;2023-08-06T06:16:44;1.30;;;1.10;;
18340;SDS011;9296;48.084;16.352;2023-08-06T06:19:12;1.23;;;1.13;;
18340;SDS011;9296;48.084;16.352;2023-08-06T06:21:39;1.80;;;1.50;;
18340;SDS011;9296;48.084;16.352;2023-08-06T06:24:07;1.27;;;1.17;;
18340;SDS011;9296;48.084;16.352;2023-08-06T06:26:34;1.10;;;1.00;;
18340;SDS011;9296;48.084;16.352;2023-08-06T06:32:04;3.80;;;1.33;;
18340;SDS011;9296;48.084;16.352;2023-08-06T06:34:33;1.30;;;1.20;;
18340;SDS011;9296;48.084;16.352;2023-08-06T06:37:00;1.20;;;1.10;;
18340;SDS011;9296;48.084;16.352;2023-08-06T06:39:27;1.10;;;1.00;;
18340;SDS011;9296;48.084;16.352;2023-08-06T06:41:55;1.52;;;1.30;;
18340;SDS011;9296;48.084;16.352;2023-08-06T06:44:22;3.28;;;1.40;;
18340;SDS011;9296;48.084;16.352;2023-08-06T06:46:49;1.10;;;1.00;;
18340;SDS011;9296;48.084;16.352;2023-08-06T06:49:16;1.20;;;1.10;;
18340;SDS011;9296;48.084;16.352;2023-08-06T06:51:45;1.17;;;1.05;;
18340;SDS011;9296;48.084;16.352;2023-08-06T06:54:12;2.25;;;1.02;;
18340;SDS011;9296;48.084;16.352;2023-08-06T06:56:39;1.15;;;1.00;;
18340;SDS011;9296;48.084;16.352;2023-08-06T06:59:06;2.80;;;0.90;;
18340;SDS011;9296;48.084;16.352;2023-08-06T07:01:33;0.93;;;0.90;;
18340;SDS011;9296;48.084;16.352;2023-08-06T07:04:00;0.90;;;0.90;;
18340;SDS011;9296;48.084;16.352;2023-08-06T07:06:29;1.10;;;1.00;;
18340;SDS011;9296;48.084;16.352;2023-08-06T07:08:58;0.90;;;0.90;;
18340;SDS011;9296;48.084;16.352;2023-08-06T07:11:25;1.30;;;1.10;;
18340;SDS011;9296;48.084;16.352;2023-08-06T07:16:57;1.20;;;1.00;;
18340;SDS011;9296;48.084;16.352;2023-08-06T07:19:24;2.05;;;1.15;;
18340;SDS011;9296;48.084;16.352;2023-08-06T07:21:51;0.88;;;0.88;;
18340;SDS011;9296;48.084;16.352;2023-08-06T07:24:22;1.02;;;1.00;;
18340;SDS011;9296;48.084;16.352;2023-08-06T07:30:11;1.85;;;1.02;;
18340;SDS011;9296;48.084;16.352;2023-08-06T07:32:38;1.30;;;1.20;;
18340;SDS011;9296;48.084;16.352;2023-08-06T07:35:05;1.17;;;1.08;;
18340;SDS011;9296;48.084;16.352;2023-08-06T07:37:37;1.95;;;1.10;;
18340;SDS011;9296;48.084;16.352;2023-08-06T07:40:06;1.85;;;1.00;;
18340;SDS011;9296;48.084;16.352;2023-08-06T07:42:33;1.00;;;1.00;;
18340;SDS011;9296;48.084;16.352;2023-08-06T07:45:01;1.05;;;0.95;;
18340;SDS011;9296;48.084;16.352;2023-08-06T07:47:28;1.27;;;1.15;;
18340;SDS011;9296;48.084;16.352;2023-08-06T07:49:56;1.50;;;1.40;;
18340;SDS011;9296;48.084;16.352;2023-08-06T07:52:23;2.80;;;1.42;;
18340;SDS011;9296;48.084;16.352;2023-08-06T07:54:50;1.52;;;1.42;;
18340;SDS011;9296;48.084;16.352;2023-08-06T07:57:19;1.85;;;1.20;;
18340;SDS011;9296;48.084;16.352;2023-08-06T07:59:46;1.70;;;1.35;;
18340;SDS011;9296;48.084;16.352;2023-08-06T08:02:13;1.40;;;1.30;;
18340;SDS011;9296;48.084;16.352;2023-08-06T08:04:40;1.52;;;1.38;;
18340;SDS011;9296;48.084;16.352;2023-08-06T08:07:09;3.28;;;1.40;;
18340;SDS011;9296;48.084;16.352;2023-08-06T08:09:36;1.35;;;1.23;;
18340;SDS011;9296;48.084;16.352;2023-08-06T08:15:04;1.50;;;1.40;;
18340;SDS011;9296;48.084;16.352;2023-08-06T08:17:31;1.52;;;1.40;;
18340;SDS011;9296;48.084;16.352;2023-08-06T08:19:59;1.40;;;1.30;;
18340;SDS011;9296;48.084;16.352;2023-08-06T08:22:27;1.30;;;1.20;;
18340;SDS011;9296;48.084;16.352;2023-08-06T08:24:54;2.88;;;1.92;;
18340;SDS011;9296;48.084;16.352;2023-08-06T08:27:21;1.60;;;1.50;;
18340;SDS011;9296;48.084;16.352;2023-08-06T08:29:48;1.63;;;1.45;;
18340;SDS011;9296;48.084;16.352;2023-08-06T08:32:17;1.70;;;1.60;;
18340;SDS011;9296;48.084;16.352;2023-08-06T08:34:44;1.70;;;1.60;;
18340;SDS011;9296;48.084;16.352;2023-08-06T08:37:12;1.70;;;1.60;;
18340;SDS011;9296;48.084;16.352;2023-08-06T08:39:40;1.70;;;1.45;;
18340;SDS011;9296;48.084;16.352;2023-08-06T08:42:19;2.03;;;1.80;;
18340;SDS011;9296;48.084;16.352;2023-08-06T08:44:46;2.85;;;1.98;;
18340;SDS011;9296;48.084;16.352;2023-08-06T08:47:14;1.95;;;1.80;;
18340;SDS011;9296;48.084;16.352;2023-08-06T08:49:43;2.10;;;1.90;;
18340;SDS011;9296;48.084;16.352;2023-08-06T08:52:11;2.72;;;1.90;;
18340;SDS011;9296;48.084;16.352;2023-08-06T08:54:38;2.00;;;1.90;;
18340;SDS011;9296;48.084;16.352;2023-08-06T08:57:22;2.85;;;2.15;;
18340;SDS011;9296;48.084;16.352;2023-08-06T08:59:49;2.33;;;2.03;;
18340;SDS011;9296;48.084;16.352;2023-08-06T09:02:17;2.38;;;2.15;;
18340;SDS011;9296;48.084;16.352;2023-08-06T09:04:46;4.07;;;2.25;;
18340;SDS011;9296;48.084;16.352;2023-08-06T09:07:16;2.80;;;2.35;;
18340;SDS011;9296;48.084;16.352;2023-08-06T09:09:45;2.22;;;2.03;;
18340;SDS011;9296;48.084;16.352;2023-08-06T09:12:14;2.30;;;2.10;;
18340;SDS011;9296;48.084;16.352;2023-08-06T09:14:41;2.60;;;2.40;;
18340;SDS011;9296;48.084;16.352;2023-08-06T09:17:08;2.72;;;2.17;;
18340;SDS011;9296;48.084;16.352;2023-08-06T09:19:36;2.50;;;2.30;;
18340;SDS011;9296;48.084;16.352;2023-08-06T09:22:05;2.65;;;2.45;;
18340;SDS011;9296;48.084;16.352;2023-08-06T09:24:38;3.70;;;2.70;;
18340;SDS011;9296;48.084;16.352;2023-08-06T09:27:06;2.60;;;2.40;;
18340;SDS011;9296;48.084;16.352;2023-08-06T09:29:39;3.03;;;2.78;;
18340;SDS011;9296;48.084;16.352;2023-08-06T09:32:06;2.47;;;2.28;;
18340;SDS011;9296;48.084;16.352;2023-08-06T09:34:34;3.05;;;2.20;;
18340;SDS011;9296;48.084;16.352;2023-08-06T09:37:01;4.03;;;2.50;;
18340;SDS011;9296;48.084;16.352;2023-08-06T09:39:32;2.80;;;2.60;;
18340;SDS011;9296;48.084;16.352;2023-08-06T09:41:59;2.72;;;2.50;;
18340;SDS011;9296;48.084;16.352;2023-08-06T09:47:32;3.40;;;2.70;;
18340;SDS011;9296;48.084;16.352;2023-08-06T09:49:59;2.90;;;2.60;;
18340;SDS011;9296;48.084;16.352;2023-08-06T09:52:26;3.17;;;2.45;;
18340;SDS011;9296;48.084;16.352;2023-08-06T09:54:55;3.05;;;2.67;;
18340;SDS011;9296;48.084;16.352;2023-08-06T10:00:17;3.30;;;2.28;;
18340;SDS011;9296;48.084;16.352;2023-08-06T10:02:45;4.10;;;2.65;;
18340;SDS011;9296;48.084;16.352;2023-08-06T10:05:13;3.10;;;2.80;;
18340;SDS011;9296;48.084;16.352;2023-08-06T10:07:41;3.50;;;2.97;;
18340;SDS011;9296;48.084;16.352;2023-08-06T10:10:11;2.67;;;2.47;;
18340;SDS011;9296;48.084;16.352;2023-08-06T10:12:57;4.20;;;2.85;;
18340;SDS011;9296;48.084;16.352;2023-08-06T10:15:26;3.38;;;3.08;;
18340;SDS011;9296;48.084;16.352;2023-08-06T10:17:54;4.72;;;3.10;;
18340;SDS011;9296;48.084;16.352;2023-08-06T10:20:21;3.50;;;3.20;;
18340;SDS011;9296;48.084;16.352;2023-08-06T10:22:59;3.72;;;3.05;;
18340;SDS011;9296;48.084;16.352;2023-08-06T10:25:28;3.70;;;3.40;;
18340;SDS011;9296;48.084;16.352;2023-08-06T10:31:01;3.33;;;3.03;;
18340;SDS011;9296;48.084;16.352;2023-08-06T10:33:39;3.70;;;3.40;;
18340;SDS011;9296;48.084;16.352;2023-08-06T10:36:07;3.40;;;3.10;;
18340;SDS011;9296;48.084;16.352;2023-08-06T10:38:36;8.63;;;3.13;;
18340;SDS011;9296;48.084;16.352;2023-08-06T10:41:14;3.60;;;3.30;;
18340;SDS011;9296;48.084;16.352;2023-08-06T10:43:42;4.43;;;3.40;;
18340;SDS011;9296;48.084;16.352;2023-08-06T10:46:10;3.50;;;3.20;;
18340;SDS011;9296;48.084;16.352;2023-08-06T10:48:38;4.35;;;2.75;;
18340;SDS011;9296;48.084;16.352;2023-08-06T10:51:06;3.00;;;2.70;;
18340;SDS011;9296;48.084;16.352;2023-08-06T10:53:34;4.30;;;3.10;;
18340;SDS011;9296;48.084;16.352;2023-08-06T10:56:01;3.47;;;2.90;;
18340;SDS011;9296;48.084;16.352;2023-08-06T10:58:33;3.28;;;2.78;;
18340;SDS011;9296;48.084;16.352;2023-08-06T11:01:00;3.17;;;2.60;;
18340;SDS011;9296;48.084;16.352;2023-08-06T11:03:28;3.53;;;2.30;;
18340;SDS011;9296;48.084;16.352;2023-08-06T11:05:55;2.30;;;2.10;;
18340;SDS011;9296;48.084;16.352;2023-08-06T11:08:23;2.55;;;2.35;;
18340;SDS011;9296;48.084;16.352;2023-08-06T11:10:50;2.42;;;2.22;;
18340;SDS011;9296;48.084;16.352;2023-08-06T11:13:17;2.65;;;2.45;;
18340;SDS011;9296;48.084;16.352;2023-08-06T11:15:46;2.60;;;2.40;;
18340;SDS011;9296;48.084;16.352;2023-08-06T11:18:13;2.33;;;2.13;;
18340;SDS011;9296;48.084;16.352;2023-08-06T11:20:40;3.42;;;2.50;;
18340;SDS011;9296;48.084;16.352;2023-08-06T11:23:09;3.63;;;2.55;;
18340;SDS011;9296;48.084;16.352;2023-08-06T11:25:36;2.47;;;2.28;;
18340;SDS011;9296;48.084;16.352;2023-08-06T11:31:18;2.50;;;2.30;;
18340;SDS011;9296;48.084;16.352;2023-08-06T11:33:46;2.95;;;2.40;;
18340;SDS011;9296;48.084;16.352;2023-08-06T11:36:13;2.33;;;2.13;;
18340;SDS011;9296;48.084;16.352;2023-08-06T11:38:40;3.80;;;1.92;;
18340;SDS011;9296;48.084;16.352;2023-08-06T11:41:07;2.47;;;2.03;;
18340;SDS011;9296;48.084;16.352;2023-08-06T11:43:35;2.92;;;2.10;;
18340;SDS011;9296;48.084;16.352;2023-08-06T11:46:02;2.15;;;1.92;;
18340;SDS011;9296;48.084;16.352;2023-08-06T11:48:30;2.95;;;2.05;;
18340;SDS011;9296;48.084;16.352;2023-08-06T11:50:58;2.55;;;2.20;;
18340;SDS011;9296;48.084;16.352;2023-08-06T11:53:27;4.00;;;2.22;;
18340;SDS011;9296;48.084;16.352;2023-08-06T11:55:55;2.75;;;2.30;;
18340;SDS011;9296;48.084;16.352;2023-08-06T11:58:41;2.97;;;1.90;;
18340;SDS011;9296;48.084;16.352;2023-08-06T12:01:08;2.60;;;2.30;;
18340;SDS011;9296;48.084;16.352;2023-08-06T12:03:40;4.78;;;1.92;;
18340;SDS011;9296;48.084;16.352;2023-08-06T12:06:07;2.10;;;1.90;;
18340;SDS011;9296;48.084;16.352;2023-08-06T12:08:34;4.05;;;2.20;;
18340;SDS011;9296;48.084;16.352;2023-08-06T12:11:03;2.30;;;2.10;;
18340;SDS011;9296;48.084;16.352;2023-08-06T12:13:30;2.33;;;2.13;;
18340;SDS011;9296;48.084;16.352;2023-08-06T12:15:57;2.72;;;2.20;;
18340;SDS011;9296;48.084;16.352;2023-08-06T12:18:24;3.83;;;2.17;;
18340;SDS011;9296;48.084;16.352;2023-08-06T12:20:53;4.22;;;2.20;;
18340;SDS011;9296;48.084;16.352;2023-08-06T12:23:20;3.53;;;2.60;;
18340;SDS011;9296;48.084;16.352;2023-08-06T12:25:47;3.17;;;2.30;;
18340;SDS011;9296;48.084;16.352;2023-08-06T12:28:15;2.42;;;2.20;;
18340;SDS011;9296;48.084;16.352;2023-08-06T12:30:42;2.60;;;2.40;;
18340;SDS011;9296;48.084;16.352;2023-08-06T12:33:10;2.50;;;2.30;;
18340;SDS011;9296;48.084;16.352;2023-08-06T12:35:37;2.50;;;2.25;;
18340;SDS011;9296;48.084;16.352;2023-08-06T12:38:06;2.78;;;2.40;;
18340;SDS011;9296;48.084;16.352;2023-08-06T12:40:33;2.50;;;2.30;;
18340;SDS011;9296;48.084;16.352;2023-08-06T12:43:00;5.95;;;2.45;;
18340;SDS011;9296;48.084;16.352;2023-08-06T12:45:27;3.85;;;2.45;;
18340;SDS011;9296;48.084;16.352;2023-08-06T12:47:54;3.60;;;2.40;;
18340;SDS011;9296;48.084;16.352;2023-08-06T12:50:22;3.58;;;2.58;;
18340;SDS011;9296;48.084;16.352;2023-08-06T12:52:49;4.43;;;2.30;;
18340;SDS011;9296;48.084;16.352;2023-08-06T12:55:17;2.50;;;2.30;;
18340;SDS011;9296;48.084;16.352;2023-08-06T12:57:45;3.88;;;2.50;;
18340;SDS011;9296;48.084;16.352;2023-08-06T13:00:12;3.35;;;2.50;;
18340;SDS011;9296;48.084;16.352;2023-08-06T13:02:39;2.60;;;2.40;;
18340;SDS011;9296;48.084;16.352;2023-08-06T13:05:06;2.95;;;2.20;;
18340;SDS011;9296;48.084;16.352;2023-08-06T13:07:35;3.35;;;2.50;;
18340;SDS011;9296;48.084;16.352;2023-08-06T13:10:02;2.75;;;2.10;;
18340;SDS011;9296;48.084;16.352;2023-08-06T13:12:31;4.13;;;2.47;;
18340;SDS011;9296;48.084;16.352;2023-08-06T13:18:01;2.65;;;2.45;;
18340;SDS011;9296;48.084;16.352;2023-08-06T13:20:29;3.03;;;2.40;;
18340;SDS011;9296;48.084;16.352;2023-08-06T13:22:57;3.20;;;2.40;;
18340;SDS011;9296;48.084;16.352;2023-08-06T13:25:26;3.50;;;2.30;;
18340;SDS011;9296;48.084;16.352;2023-08-06T13:27:54;2.88;;;1.95;;
18340;SDS011;9296;48.084;16.352;2023-08-06T13:30:22;2.08;;;1.88;;
18340;SDS011;9296;48.084;16.352;2023-08-06T13:32:49;2.85;;;2.03;;
18340;SDS011;9296;48.084;16.352;2023-08-06T13:35:16;3.83;;;1.98;;
18340;SDS011;9296;48.084;16.352;2023-08-06T13:37:43;3.38;;;2.05;;
18340;SDS011;9296;48.084;16.352;2023-08-06T13:40:13;3.20;;;2.00;;
18340;SDS011;9296;48.084;16.352;2023-08-06T13:42:40;2.78;;;1.95;;
18340;SDS011;9296;48.084;16.352;2023-08-06T13:45:09;2.70;;;2.10;;
18340;SDS011;9296;48.084;16.352;2023-08-06T13:47:36;2.35;;;1.83;;
18340;SDS011;9296;48.084;16.352;2023-08-06T13:50:04;2.28;;;1.70;;
18340;SDS011;9296;48.084;16.352;2023-08-06T13:52:31;2.53;;;1.73;;
18340;SDS011;9296;48.084;16.352;2023-08-06T13:55:00;3.92;;;1.70;;
18340;SDS011;9296;48.084;16.352;2023-08-06T13:57:28;2.60;;;1.50;;
18340;SDS011;9296;48.084;16.352;2023-08-06T14:00:15;1.90;;;1.50;;
18340;SDS011;9296;48.084;16.352;2023-08-06T14:02:43;2.50;;;1.15;;
18340;SDS011;9296;48.084;16.352;2023-08-06T14:05:10;1.85;;;1.33;;
18340;SDS011;9296;48.084;16.352;2023-08-06T14:07:38;1.17;;;1.08;;
18340;SDS011;9296;48.084;16.352;2023-08-06T14:10:05;1.20;;;1.10;;
18340;SDS011;9296;48.084;16.352;2023-08-06T14:12:34;2.75;;;1.08;;
18340;SDS011;9296;48.084;16.352;2023-08-06T14:15:01;1.75;;;0.90;;
18340;SDS011;9296;48.084;16.352;2023-08-06T14:17:30;1.13;;;0.70;;
18340;SDS011;9296;48.084;16.352;2023-08-06T14:19:57;1.33;;;0.80;;
18340;SDS011;9296;48.084;16.352;2023-08-06T14:22:25;2.55;;;0.77;;
18340;SDS011;9296;48.084;16.352;2023-08-06T14:24:53;1.77;;;0.65;;
18340;SDS011;9296;48.084;16.352;2023-08-06T14:27:21;1.00;;;0.80;;
18340;SDS011;9296;48.084;16.352;2023-08-06T14:29:48;0.82;;;0.60;;
18340;SDS011;9296;48.084;16.352;2023-08-06T14:32:15;1.75;;;0.77;;
18340;SDS011;9296;48.084;16.352;2023-08-06T14:34:46;1.10;;;0.70;;
18340;SDS011;9296;48.084;16.352;2023-08-06T14:37:13;3.30;;;0.63;;
18340;SDS011;9296;48.084;16.352;2023-08-06T14:39:40;0.80;;;0.80;;
18340;SDS011;9296;48.084;16.352;2023-08-06T14:42:07;0.57;;;0.50;;
18340;SDS011;9296;48.084;16.352;2023-08-06T14:44:34;1.95;;;0.80;;
18340;SDS011;9296;48.084;16.352;2023-08-06T14:47:01;0.60;;;0.50;;
18340;SDS011;9296;48.084;16.352;2023-08-06T14:49:29;1.52;;;0.80;;
18340;SDS011;9296;48.084;16.352;2023-08-06T14:51:57;1.00;;;0.75;;
18340;SDS011;9296;48.084;16.352;2023-08-06T14:54:26;1.70;;;0.60;;
18340;SDS011;9296;48.084;16.352;2023-08-06T14:56:53;0.88;;;0.68;;
18340;SDS011;9296;48.084;16.352;2023-08-06T15:02:25;5.50;;;0.80;;
18340;SDS011;9296;48.084;16.352;2023-08-06T15:04:53;1.27;;;0.93;;
18340;SDS011;9296;48.084;16.352;2023-08-06T15:07:21;1.10;;;0.50;;
18340;SDS011;9296;48.084;16.352;2023-08-06T15:09:48;1.10;;;0.95;;
18340;SDS011;9296;48.084;16.352;2023-08-06T15:12:15;2.30;;;1.90;;
18340;SDS011;9296;48.084;16.352;2023-08-06T15:17:31;0.50;;;0.50;;
18340;SDS011;9296;48.084;16.352;2023-08-06T15:19:59;0.57;;;0.52;;
18340;SDS011;9296;48.084;16.352;2023-08-06T15:22:27;0.75;;;0.40;;
18340;SDS011;9296;48.084;16.352;2023-08-06T15:24:56;0.30;;;0.30;;
18340;SDS011;9296;48.084;16.352;2023-08-06T15:27:23;2.33;;;0.45;;
18340;SDS011;9296;48.084;16.352;2023-08-06T15:29:51;5.65;;;0.50;;
18340;SDS011;9296;48.084;16.352;2023-08-06T15:32:18;1.63;;;0.70;;
18340;SDS011;9296;48.084;16.352;2023-08-06T15:34:45;0.28;;;0.28;;
18340;SDS011;9296;48.084;16.352;2023-08-06T15:37:13;2.17;;;0.50;;
18340;SDS011;9296;48.084;16.352;2023-08-06T15:39:42;3.53;;;1.08;;
18340;SDS011;9296;48.084;16.352;2023-08-06T15:42:09;4.07;;;0.98;;
18340;SDS011;9296;48.084;16.352;2023-08-06T15:44:54;0.82;;;0.50;;
18340;SDS011;9296;48.084;16.352;2023-08-06T15:47:21;1.63;;;0.50;;
18340;SDS011;9296;48.084;16.352;2023-08-06T15:49:49;0.50;;;0.50;;
18340;SDS011;9296;48.084;16.352;2023-08-06T15:52:16;0.88;;;0.30;;
18340;SDS011;9296;48.084;16.352;2023-08-06T15:54:44;0.68;;;0.30;;
18340;SDS011;9296;48.084;16.352;2023-08-06T15:57:12;0.60;;;0.50;;
18340;SDS011;9296;48.084;16.352;2023-08-06T15:59:40;1.65;;;0.25;;
18340;SDS011;9296;48.084;16.352;2023-08-06T16:02:08;2.20;;;0.40;;
18340;SDS011;9296;48.084;16.352;2023-08-06T16:04:35;2.75;;;0.40;;
18340;SDS011;9296;48.084;16.352;2023-08-06T16:07:02;0.77;;;0.30;;
18340;SDS011;9296;48.084;16.352;2023-08-06T16:09:29;2.78;;;0.50;;